Time;durP1;ratioP1;P1;durP2;ratioP2;P2;SDS_P1;SDS_P2;PMS_P1;PMS_P2;Temp;Humidity;BMP_temperature;BMP_pressure;BME280_temperature;BME280_humidity;BME280_pressure;Samples;Min_cycle;Max_cycle;Signal;HPM_P1;HPM_P2
2022/09/03 00:00:45;;;;;;;7.47;5.08;;;;;;;13.66;46.41;101012.80;1643710;84;21107;-75
2022/09/03 00:03:32;;;;;;;10.00;5.12;;;;;;;13.63;46.55;101015.33;1611557;87;21047;-74
2022/09/03 00:06:08;;;;;;;;;;;;;;;13.60;46.60;101015.73;1660431;84;21022;-74
2022/09/03 00:09:05;;;;;;;7.35;5.12;;;;;;;13.56;46.66;101021.98;1666851;84;20133;-73
2022/09/03 00:12:10;;;;;;;5.72;4.65;;;;;;;13.51;46.84;101019.55;1667875;84;21050;-73
2022/09/03 00:14:54;;;;;;;6.50;4.83;;;;;;;13.52;46.84;101018.52;1641627;85;21054;-73
2022/09/03 00:17:46;;;;;;;5.08;3.70;;;;;;;13.51;46.99;101019.03;1668832;84;21025;-71
2022/09/03 00:20:31;;;;;;;9.80;4.28;;;;;;;13.50;47.06;101022.72;1660974;84;21597;-73
2022/09/03 00:23:03;;;;;;;7.87;4.90;;;;;;;13.49;47.13;101028.29;1668865;84;21048;-72
2022/09/03 00:25:51;;;;;;;4.53;4.08;;;;;;;13.47;47.09;101023.12;1643436;84;20992;-74
2022/09/03 00:28:29;;;;;;;6.30;4.53;;;;;;;13.47;47.21;101019.10;1658770;83;21054;-72
2022/09/03 00:31:11;;;;;;;5.50;3.77;;;;;;;13.47;47.24;101018.25;1688743;83;21603;-72
2022/09/03 00:33:41;;;;;;;5.78;4.78;;;;;;;13.46;47.17;101020.11;1669058;84;21113;-72
2022/09/03 00:36:22;;;;;;;5.47;4.03;;;;;;;13.46;47.26;101018.77;1648058;85;21110;-72
2022/09/03 00:38:48;;;;;;;4.33;3.20;;;;;;;13.48;47.17;101014.56;1656703;85;21080;-74
2022/09/03 00:41:32;;;;;;;;;;;;;;;13.48;47.16;101018.58;1676853;82;21419;-72
2022/09/03 00:44:22;;;;;;;4.70;4.22;;;;;;;13.49;47.21;101018.92;1674213;84;20166;-75
2022/09/03 00:47:12;;;;;;;4.33;3.45;;;;;;;13.46;47.26;101020.63;1662324;84;21556;-74
2022/09/03 00:50:15;;;;;;;6.28;3.50;;;;;;;13.48;47.25;101018.06;1687199;83;21048;-73
2022/09/03 00:52:59;;;;;;;5.17;3.65;;;;;;;13.50;47.23;101020.04;1687472;82;21608;-73
2022/09/03 00:56:04;;;;;;;7.17;3.45;;;;;;;13.51;47.21;101018.21;1695754;83;21328;-73
2022/09/03 00:58:59;;;;;;;4.72;3.55;;;;;;;13.50;47.17;101013.34;1690136;83;21083;-73
2022/09/03 01:01:49;;;;;;;4.55;4.05;;;;;;;13.52;47.38;101017.17;1700743;83;21634;-74
2022/09/03 01:04:59;;;;;;;4.97;3.67;;;;;;;13.48;47.64;101022.60;1698433;82;21568;-73
2022/09/03 01:07:39;;;;;;;4.53;2.90;;;;;;;13.43;47.60;101029.87;1681886;83;21057;-73
2022/09/03 01:10:31;;;;;;;5.72;3.80;;;;;;;13.41;47.71;101021.18;1701674;83;21105;-73
2022/09/03 01:13:03;;;;;;;5.47;3.90;;;;;;;13.39;47.73;101028.09;1685703;83;21121;-73
2022/09/03 01:15:53;;;;;;;5.10;3.20;;;;;;;13.37;47.76;101024.78;1693539;83;21065;-72
2022/09/03 01:18:28;;;;;;;5.30;3.58;;;;;;;13.38;47.81;101030.44;1653061;85;21645;-73
2022/09/03 01:21:17;;;;;;;4.12;3.45;;;;;;;13.39;47.74;101023.22;1647629;86;21630;-72
2022/09/03 01:24:06;;;;;;;6.72;4.08;;;;;;;13.39;47.74;101020.55;1657294;85;21165;-72
2022/09/03 01:26:40;;;;;;;5.33;3.58;;;;;;;13.41;47.78;101020.69;1659360;85;21617;-72
2022/09/03 01:29:44;;;;;;;7.20;4.03;;;;;;;13.43;47.75;101021.84;1659554;84;21113;-73
2022/09/03 01:32:28;;;;;;;15.03;4.17;;;;;;;13.44;47.64;101014.94;1652357;85;21026;-72
2022/09/03 01:35:09;;;;;;;4.62;4.10;;;;;;;13.47;47.70;101026.28;1664177;85;21122;-73
2022/09/03 01:37:57;;;;;;;5.05;3.85;;;;;;;13.46;47.96;101019.28;1663467;85;21074;-73
2022/09/03 01:40:38;;;;;;;5.08;3.35;;;;;;;13.41;48.06;101026.05;1647305;85;21740;-74
2022/09/03 01:43:36;;;;;;;5.03;3.75;;;;;;;13.38;47.97;101021.06;1661413;85;21041;-72
2022/09/03 01:46:15;;;;;;;;;;;;;;;13.40;47.98;101024.89;1662191;85;21126;-73
2022/09/03 01:49:03;;;;;;;7.15;3.15;;;;;;;13.39;47.86;101025.90;1663674;85;20135;-73
2022/09/03 01:51:31;;;;;;;5.45;3.33;;;;;;;13.34;48.16;101025.66;1661691;85;21744;-73
2022/09/03 01:54:20;;;;;;;8.73;5.10;;;;;;;13.32;48.14;101033.87;1665948;85;20967;-73
2022/09/03 01:57:09;;;;;;;5.35;3.65;;;;;;;13.33;48.17;101032.02;1661536;83;21042;-72
2022/09/03 01:59:57;;;;;;;6.35;4.00;;;;;;;13.33;48.33;101028.00;1665360;85;21043;-74
2022/09/03 02:02:27;;;;;;;4.75;3.52;;;;;;;13.32;48.32;101030.37;1664200;85;21551;-72
2022/09/03 02:05:13;;;;;;;4.80;3.40;;;;;;;13.33;48.32;101025.33;1660394;84;21510;-74
2022/09/03 02:07:51;;;;;;;9.45;3.95;;;;;;;13.35;48.32;101026.78;1652952;85;21071;-72
2022/09/03 02:10:23;;;;;;;4.80;3.37;;;;;;;13.35;48.35;101028.12;1666665;85;21586;-72
2022/09/03 02:12:55;;;;;;;5.47;3.15;;;;;;;13.33;48.46;101023.47;1669445;84;21539;-74
2022/09/03 02:15:24;;;;;;;4.97;3.95;;;;;;;13.35;48.48;101029.46;1667136;84;21537;-72
2022/09/03 02:17:59;;;;;;;4.58;3.65;;;;;;;13.35;48.50;101027.30;1659516;85;21039;-73
2022/09/03 02:20:28;;;;;;;5.37;4.10;;;;;;;13.36;48.52;101028.98;1664164;85;21177;-73
2022/09/03 02:22:59;;;;;;;5.03;3.75;;;;;;;13.34;48.54;101026.48;1665229;85;21046;-72
2022/09/03 02:25:36;;;;;;;3.98;3.30;;;;;;;13.35;48.63;101036.16;1666127;85;21042;-72
2022/09/03 02:28:05;;;;;;;6.12;4.00;;;;;;;13.34;48.61;101031.02;1663820;85;21458;-73
2022/09/03 02:30:32;;;;;;;5.80;4.25;;;;;;;13.32;48.67;101032.54;1666269;85;20999;-75
2022/09/03 02:32:59;;;;;;;6.47;3.95;;;;;;;13.31;48.83;101033.55;1654904;84;21101;-73
2022/09/03 02:35:25;;;;;;;7.05;3.98;;;;;;;13.28;48.91;101033.91;1664174;85;21451;-74
2022/09/03 02:37:51;;;;;;;7.00;3.98;;;;;;;13.22;49.00;101035.50;1665603;85;21490;-73
2022/09/03 02:40:17;;;;;;;4.47;3.25;;;;;;;13.20;49.25;101035.34;1648395;85;21008;-73
2022/09/03 02:42:46;;;;;;;9.60;4.10;;;;;;;13.17;49.28;101026.37;1652814;85;20976;-72
2022/09/03 02:45:24;;;;;;;5.28;3.55;;;;;;;13.14;49.33;101034.25;1652069;85;20999;-72
2022/09/03 02:47:56;;;;;;;4.62;4.17;;;;;;;13.13;49.54;101029.08;1662904;85;21921;-73
2022/09/03 02:50:23;;;;;;;6.28;4.00;;;;;;;13.13;49.54;101029.93;1663471;85;21499;-73
2022/09/03 02:52:49;;;;;;;5.90;3.75;;;;;;;13.16;49.52;101028.71;1665739;85;21624;-73
2022/09/03 02:55:17;;;;;;;4.83;4.15;;;;;;;13.18;49.54;101032.84;1664942;85;21546;-72
2022/09/03 02:57:44;;;;;;;6.62;3.35;;;;;;;13.18;49.60;101030.17;1665095;84;21133;-73
2022/09/03 03:00:10;;;;;;;;;;;;;;;13.17;49.59;101034.40;1667353;85;21003;-72
2022/09/03 03:02:37;;;;;;;10.00;3.58;;;;;;;13.18;49.65;101040.87;1665073;85;20140;-72
2022/09/03 03:05:07;;;;;;;5.00;3.25;;;;;;;13.14;49.64;101038.27;1666138;85;21027;-72
2022/09/03 03:07:37;;;;;;;4.25;2.98;;;;;;;13.13;49.80;101034.43;1658049;85;21074;-73
2022/09/03 03:10:04;;;;;;;5.87;3.17;;;;;;;13.14;49.80;101033.42;1657659;85;21076;-73
2022/09/03 03:12:30;;;;;;;9.38;4.53;;;;;;;13.18;49.65;101034.70;1663348;85;21134;-73
2022/09/03 03:14:57;;;;;;;6.90;3.85;;;;;;;13.19;49.53;101031.84;1653667;85;21503;-74
2022/09/03 03:17:25;;;;;;;6.30;4.17;;;;;;;13.19;49.66;101034.52;1656456;85;21728;-73
2022/09/03 03:19:51;;;;;;;4.05;3.55;;;;;;;13.19;49.61;101044.41;1654720;85;21031;-73
2022/09/03 03:22:17;;;;;;;4.60;3.50;;;;;;;13.18;49.68;101042.22;1666113;85;20991;-73
2022/09/03 03:24:43;;;;;;;5.40;3.45;;;;;;;13.18;49.68;101044.89;1656481;85;21486;-72
2022/09/03 03:27:10;;;;;;;7.83;4.60;;;;;;;13.19;49.67;101043.07;1662024;85;20983;-72
2022/09/03 03:29:36;;;;;;;8.13;4.20;;;;;;;12.90;49.67;100995.26;1665877;85;21519;-73
2022/09/03 03:32:02;;;;;;;5.80;3.95;;;;;;;13.21;49.82;101049.06;1658620;85;21015;-72
2022/09/03 03:34:29;;;;;;;4.35;3.92;;;;;;;13.18;49.81;101050.25;1665349;85;21019;-74
2022/09/03 03:36:55;;;;;;;;;;;;;;;13.18;50.10;101050.77;1665578;85;21030;-67
2022/09/03 03:39:21;;;;;;;5.83;4.35;;;;;;;13.16;50.24;101056.81;1663825;85;20107;-72
2022/09/03 03:41:47;;;;;;;6.35;4.58;;;;;;;13.10;50.56;101046.87;1664090;85;21007;-72
2022/09/03 03:44:14;;;;;;;4.92;4.05;;;;;;;13.12;50.53;101054.20;1664888;85;21100;-72
2022/09/03 03:46:40;;;;;;;4.65;4.00;;;;;;;13.14;50.58;101057.52;1664060;85;21483;-71
2022/09/03 03:49:08;;;;;;;6.72;4.12;;;;;;;13.13;50.68;101058.52;1646118;85;21165;-73
2022/09/03 03:51:37;;;;;;;4.55;3.95;;;;;;;13.10;50.65;101053.56;1659729;85;21022;-70
2022/09/03 03:54:04;;;;;;;3.85;3.15;;;;;;;13.06;50.66;101051.77;1664506;85;21078;-66
2022/09/03 03:56:32;;;;;;;5.28;4.15;;;;;;;13.06;50.77;101049.09;1664592;85;21081;-66
2022/09/03 03:58:58;;;;;;;4.15;3.58;;;;;;;13.10;50.71;101056.23;1662579;85;21050;-70
2022/09/03 04:01:27;;;;;;;4.60;3.90;;;;;;;13.12;50.64;101055.54;1663200;83;21591;-70
2022/09/03 04:03:55;;;;;;;6.45;3.30;;;;;;;13.15;50.61;101051.16;1665563;85;20979;-70
2022/09/03 04:06:21;;;;;;;5.17;3.90;;;;;;;13.17;50.36;101053.14;1668677;85;21014;-69
2022/09/03 04:08:49;;;;;;;8.65;4.50;;;;;;;13.20;50.28;101056.27;1662557;85;21046;-71
2022/09/03 04:11:19;;;;;;;5.20;3.85;;;;;;;13.23;50.23;101055.88;1663251;85;21431;-70
2022/09/03 04:13:47;;;;;;;8.23;3.70;;;;;;;13.29;50.14;101064.18;1659635;85;21078;-68
2022/09/03 04:16:21;;;;;;;4.22;3.52;;;;;;;13.32;50.05;101061.99;1666313;85;21474;-69
2022/09/03 04:18:48;;;;;;;4.25;3.40;;;;;;;13.34;49.99;101061.29;1665502;85;20967;-67
2022/09/03 04:21:18;;;;;;;7.67;3.70;;;;;;;13.35;49.86;101067.47;1666408;85;21542;-69
2022/09/03 04:23:47;;;;;;;6.10;3.50;;;;;;;13.36;50.17;101063.27;1664389;85;21070;-66
2022/09/03 04:26:18;;;;;;;3.92;3.22;;;;;;;13.35;50.31;101068.80;1665662;85;20956;-67
2022/09/03 04:28:44;;;;;;;4.50;3.40;;;;;;;13.30;50.41;101068.05;1664224;85;21302;-68
2022/09/03 04:31:13;;;;;;;9.25;3.72;;;;;;;13.29;50.41;101072.21;1663981;85;21585;-68
2022/09/03 04:33:41;;;;;;;4.58;3.30;;;;;;;13.27;50.27;101080.42;1662911;84;21030;-67
2022/09/03 04:36:20;;;;;;;5.58;3.87;;;;;;;13.25;50.51;101081.95;1663197;85;21026;-70
2022/09/03 04:38:52;;;;;;;23.45;8.00;;;;;;;13.26;50.61;101085.48;1663750;85;21093;-68
2022/09/03 04:41:26;;;;;;;32.93;9.55;;;;;;;13.29;50.60;101086.42;1662360;85;21121;-70
2022/09/03 04:43:55;;;;;;;25.10;7.03;;;;;;;13.29;50.23;101080.25;1660926;85;22301;-68
2022/09/03 04:46:25;;;;;;;21.48;6.12;;;;;;;13.28;50.26;101079.91;1660833;85;22547;-73
2022/09/03 04:48:53;;;;;;;13.50;5.65;;;;;;;13.32;50.23;101084.75;1662521;85;20991;-68
2022/09/03 04:51:26;;;;;;;15.53;6.05;;;;;;;13.39;50.19;101085.66;1659855;85;21183;-72
2022/09/03 04:53:55;;;;;;;13.20;5.05;;;;;;;13.46;50.21;101074.19;1662040;84;22565;-69
2022/09/03 04:56:30;;;;;;;9.65;4.03;;;;;;;13.50;50.16;101074.95;1661918;84;21074;-74
2022/09/03 04:59:05;;;;;;;10.10;4.33;;;;;;;13.56;50.05;101081.39;1660879;85;21130;-72
2022/09/03 05:01:40;;;;;;;17.07;4.67;;;;;;;13.62;50.18;101086.02;1660565;85;21038;-76
2022/09/03 05:04:07;;;;;;;12.10;4.53;;;;;;;13.63;50.09;101080.95;1664301;85;21545;-72
2022/09/03 05:06:36;;;;;;;7.28;4.05;;;;;;;13.66;50.12;101085.13;1664011;85;20999;-71
2022/09/03 05:09:03;;;;;;;12.78;3.67;;;;;;;13.70;50.09;101077.84;1665605;85;21499;-80
2022/09/03 05:11:29;;;;;;;10.82;5.15;;;;;;;13.73;49.89;101082.83;1664158;85;21121;-76
2022/09/03 05:13:59;;;;;;;8.55;4.40;;;;;;;13.75;49.93;101079.45;1657598;85;21071;-78
2022/09/03 05:16:28;;;;;;;6.78;4.17;;;;;;;13.78;50.05;101080.91;1647839;85;21046;-73
2022/09/03 05:18:58;;;;;;;10.08;4.20;;;;;;;13.82;50.02;101079.49;1663673;85;21499;-74
2022/09/03 05:21:25;;;;;;;6.10;4.47;;;;;;;13.87;49.73;101075.73;1714931;81;21049;-76
2022/09/03 05:23:52;;;;;;;12.47;5.08;;;;;;;13.91;49.60;101068.97;1696872;83;21108;-76
2022/09/03 05:26:22;;;;;;;11.40;4.78;;;;;;;13.97;49.41;101070.05;1662790;84;21307;-76
2022/09/03 05:28:58;;;;;;;8.18;5.10;;;;;;;14.03;49.13;101067.92;1640332;86;21575;-73
2022/09/03 05:31:30;;;;;;;10.63;4.30;;;;;;;14.03;49.16;101065.25;1662506;85;21031;-73
2022/09/03 05:33:59;;;;;;;11.90;4.42;;;;;;;14.07;49.15;101067.03;1689586;83;21032;-73
2022/09/03 05:36:29;;;;;;;9.75;4.67;;;;;;;14.12;48.91;101067.29;1675819;84;21098;-74
2022/09/03 05:38:58;;;;;;;9.95;4.58;;;;;;;14.19;48.76;101063.64;1667450;85;20980;-74
2022/09/03 05:41:26;;;;;;;10.48;4.62;;;;;;;14.27;48.50;101061.84;1664361;85;20971;-72
2022/09/03 05:43:55;;;;;;;6.83;4.28;;;;;;;14.33;48.53;101061.05;1661344;85;21526;-73
2022/09/03 05:46:30;;;;;;;11.38;5.50;;;;;;;14.38;48.48;101064.80;1689018;83;21506;-72
2022/09/03 05:48:52;;;;;;;17.92;6.97;;;;;;;14.44;48.16;101067.73;1692534;83;21057;-73
2022/09/03 05:51:19;;;;;;;23.50;7.62;;;;;;;14.41;47.96;101066.28;1691410;83;21062;-74
2022/09/03 05:53:47;;;;;;;33.73;10.78;;;;;;;14.37;48.23;101065.84;1688583;83;21077;-73
2022/09/03 05:56:17;;;;;;;45.08;11.88;;;;;;;14.38;48.46;101064.80;1681202;83;21082;-74
2022/09/03 05:58:47;;;;;;;29.98;9.75;;;;;;;14.44;48.54;101065.88;1686076;83;21058;-73
2022/09/03 06:01:25;;;;;;;29.95;8.85;;;;;;;14.51;48.36;101068.09;1685230;83;21097;-72
2022/09/03 06:04:04;;;;;;;35.45;10.10;;;;;;;14.58;48.59;101070.86;1683968;83;21114;-72
2022/09/03 06:06:35;;;;;;;34.55;10.48;;;;;;;14.62;48.33;101067.25;1686889;83;21101;-72
2022/09/03 06:09:06;;;;;;;29.55;11.53;;;;;;;14.64;48.36;101063.36;1688824;83;21058;-73
2022/09/03 06:11:35;;;;;;;28.00;9.35;;;;;;;14.70;48.43;101057.72;1685105;83;21100;-72
2022/09/03 06:14:05;;;;;;;41.33;10.45;;;;;;;14.76;48.16;101059.08;1685492;83;21038;-73
2022/09/03 06:16:34;;;;;;;28.92;9.75;;;;;;;14.85;48.28;101057.59;1681026;83;21050;-73
2022/09/03 06:19:04;;;;;;;29.77;9.03;;;;;;;14.92;47.92;101061.14;1679407;83;21050;-73
2022/09/03 06:21:30;;;;;;;26.65;9.03;;;;;;;14.94;47.94;101055.88;1683391;83;21049;-72
2022/09/03 06:23:58;;;;;;;27.25;7.45;;;;;;;15.03;47.82;101052.52;1689969;83;21385;-72
2022/09/03 06:26:26;;;;;;;30.45;8.83;;;;;;;15.11;47.68;101048.31;1688629;83;21101;-72
2022/09/03 06:28:53;;;;;;;31.20;10.55;;;;;;;15.14;47.22;101052.44;1688858;83;21168;-73
2022/09/03 06:31:21;;;;;;;49.88;13.28;;;;;;;15.10;47.35;101051.19;1690669;83;21082;-73
2022/09/03 06:33:48;;;;;;;28.25;10.13;;;;;;;15.08;47.56;101055.94;1675721;83;21466;-78
2022/09/03 06:36:21;;;;;;;23.02;7.50;;;;;;;15.12;47.84;101057.19;1692340;83;21105;-79
2022/09/03 06:38:54;;;;;;;18.48;6.67;;;;;;;15.24;47.62;101048.88;1691583;83;21423;-75
2022/09/03 06:41:25;;;;;;;14.15;5.78;;;;;;;15.36;47.51;101052.61;1689054;83;21129;-70
2022/09/03 06:44:04;;;;;;;13.20;4.70;;;;;;;15.49;47.01;101061.23;1690907;83;21067;-72
2022/09/03 06:46:33;;;;;;;29.43;9.70;;;;;;;15.29;46.41;101011.48;1679124;83;21065;-70
2022/09/03 06:48:59;;;;;;;24.55;7.70;;;;;;;15.60;46.22;101058.47;1687027;83;21006;-71
2022/09/03 06:51:28;;;;;;;;;;;;;;;15.55;46.78;101060.93;1694111;83;21030;-74
2022/09/03 06:54:01;;;;;;;16.70;6.28;;;;;;;15.57;47.03;101058.87;1692013;83;20174;-73
2022/09/03 06:56:29;;;;;;;20.45;6.55;;;;;;;15.58;46.62;101056.50;1692111;83;21069;-66
2022/09/03 06:58:59;;;;;;;21.37;7.20;;;;;;;15.62;46.86;101058.27;1692281;83;21034;-65
2022/09/03 07:01:29;;;;;;;25.95;6.58;;;;;;;15.76;47.00;101060.81;1691705;83;21149;-66
2022/09/03 07:04:00;;;;;;;18.50;7.53;;;;;;;15.93;46.50;101067.11;1682387;83;21018;-65
2022/09/03 07:06:31;;;;;;;15.25;6.62;;;;;;;16.08;46.13;101066.38;1692993;83;21474;-65
2022/09/03 07:08:59;;;;;;;24.90;8.25;;;;;;;16.23;45.75;101063.48;1685556;83;21674;-65
2022/09/03 07:11:29;;;;;;;59.27;14.10;;;;;;;16.34;45.41;101060.69;1688804;83;20995;-64
2022/09/03 07:13:57;;;;;;;55.40;17.07;;;;;;;16.43;45.31;101068.86;1692140;83;20990;-67
2022/09/03 07:16:31;;;;;;;31.45;11.18;;;;;;;16.59;44.91;101067.58;1685086;83;21224;-65
2022/09/03 07:18:59;;;;;;;33.15;9.15;;;;;;;16.69;44.59;101059.91;1691595;83;21066;-66
2022/09/03 07:21:30;;;;;;;45.35;11.75;;;;;;;16.83;44.56;101055.34;1694396;83;21600;-64
2022/09/03 07:23:57;;;;;;;47.17;11.55;;;;;;;17.00;43.97;101055.69;1692350;83;21616;-65
2022/09/03 07:26:31;;;;;;;31.52;9.48;;;;;;;17.00;43.97;101055.69;1686773;83;21729;-66
2022/09/03 07:29:00;;;;;;;46.98;10.03;;;;;;;17.05;44.37;101066.66;1688580;83;21497;-65
2022/09/03 07:31:30;;;;;;;37.42;9.48;;;;;;;17.08;44.15;101070.77;1690024;83;21060;-64
2022/09/03 07:33:59;;;;;;;29.53;8.70;;;;;;;17.12;43.82;101065.27;1687574;83;21085;-65
2022/09/03 07:36:28;;;;;;;25.72;7.55;;;;;;;17.09;43.90;101064.36;1686467;83;21043;-65
2022/09/03 07:38:57;;;;;;;8.23;4.58;;;;;;;17.06;44.00;101066.12;1691846;83;21601;-66
2022/09/03 07:41:26;;;;;;;4.90;3.95;;;;;;;17.06;44.36;101067.47;1685489;83;21066;-65
2022/09/03 07:43:53;;;;;;;8.80;4.30;;;;;;;16.99;44.48;101069.36;1688039;83;21157;-65
2022/09/03 07:46:23;;;;;;;10.40;4.40;;;;;;;16.98;44.76;101071.77;1688478;83;21427;-64
2022/09/03 07:48:56;;;;;;;15.08;5.65;;;;;;;17.04;44.54;101072.25;1682999;83;21010;-65
2022/09/03 07:51:28;;;;;;;18.10;5.65;;;;;;;17.04;44.18;101068.20;1694644;83;20979;-65
2022/09/03 07:53:59;;;;;;;11.40;5.08;;;;;;;17.05;44.30;101069.88;1668082;85;21116;-64
2022/09/03 07:56:26;;;;;;;11.73;5.00;;;;;;;17.09;44.41;101061.67;1699243;83;21153;-65
2022/09/03 07:58:55;;;;;;;14.93;5.95;;;;;;;17.22;44.31;101062.95;1687620;83;21052;-65
2022/09/03 08:01:23;;;;;;;9.60;4.50;;;;;;;17.36;43.60;101058.31;1692732;83;21031;-65
2022/09/03 08:03:52;;;;;;;10.50;4.97;;;;;;;17.50;43.30;101061.78;1687121;83;21070;-65
2022/09/03 08:06:22;;;;;;;14.50;5.00;;;;;;;17.63;43.08;101064.39;1691824;83;22094;-64
2022/09/03 08:08:55;;;;;;;12.28;5.50;;;;;;;17.76;42.99;101061.28;1681315;83;21045;-64
2022/09/03 08:11:22;;;;;;;14.58;4.92;;;;;;;17.90;42.61;101062.34;1630964;86;21038;-64
2022/09/03 08:14:02;;;;;;;14.33;4.67;;;;;;;18.05;42.11;101059.86;1662901;85;21033;-66
2022/09/03 08:16:38;;;;;;;10.95;4.37;;;;;;;18.18;41.87;101060.28;1671977;85;21581;-64
2022/09/03 08:19:04;;;;;;;8.93;3.92;;;;;;;18.25;41.45;101056.97;1673534;84;21313;-64
2022/09/03 08:21:31;;;;;;;8.05;3.77;;;;;;;18.28;41.65;101059.23;1666939;85;21068;-64
2022/09/03 08:24:01;;;;;;;7.37;2.85;;;;;;;18.38;41.65;101048.75;1678118;84;21111;-63
2022/09/03 08:26:38;;;;;;;6.62;2.52;;;;;;;18.47;40.98;101056.86;1681591;84;21303;-64
2022/09/03 08:29:05;;;;;;;6.53;2.22;;;;;;;18.52;41.03;101053.51;1676487;84;21020;-64
2022/09/03 08:31:34;;;;;;;10.63;2.95;;;;;;;18.60;40.64;101055.91;1680406;84;21534;-65
2022/09/03 08:34:03;;;;;;;4.62;2.45;;;;;;;18.69;40.66;101059.14;1679606;84;21532;-65
2022/09/03 08:36:32;;;;;;;3.27;1.87;;;;;;;18.78;40.07;101055.09;1669172;84;21590;-65
2022/09/03 08:39:08;;;;;;;5.50;1.98;;;;;;;18.81;39.57;101056.01;1678065;84;22229;-65
2022/09/03 08:41:43;;;;;;;3.05;1.90;;;;;;;18.79;39.78;101061.31;1667667;84;21124;-67
2022/09/03 08:44:48;;;;;;;8.40;2.12;;;;;;;18.82;39.75;101052.27;1648297;84;21107;-66
2022/09/03 08:47:50;;;;;;;8.90;2.72;;;;;;;18.88;39.16;101045.67;1672014;84;21243;-65
2022/09/03 08:50:46;;;;;;;12.33;3.02;;;;;;;18.80;39.02;101032.77;1666559;84;21037;-66
2022/09/03 08:53:27;;;;;;;4.62;3.55;;;;;;;18.75;38.97;101033.12;1665548;84;21084;-66
2022/09/03 08:56:05;;;;;;;3.62;2.30;;;;;;;18.78;38.69;101044.30;1667898;84;21098;-66
2022/09/03 08:58:37;;;;;;;3.52;2.00;;;;;;;18.76;38.03;101046.40;1677846;84;21065;-66
2022/09/03 09:01:32;;;;;;;7.25;2.90;;;;;;;18.68;38.44;101027.78;1676633;84;20966;-66
2022/09/03 09:04:10;;;;;;;4.75;2.33;;;;;;;18.55;38.76;101024.70;1667389;84;21057;-63
2022/09/03 09:07:11;;;;;;;7.10;3.95;;;;;;;18.43;38.82;101019.76;1674530;84;21049;-66
2022/09/03 09:09:49;;;;;;;4.65;3.55;;;;;;;18.45;38.99;101019.82;1672034;85;21895;-65
2022/09/03 09:12:37;;;;;;;5.10;4.12;;;;;;;18.61;39.08;101017.57;1679602;84;21109;-65
2022/09/03 09:15:32;;;;;;;0.95;0.85;;;;;;;18.70;38.97;101017.57;1672468;84;21031;-66
2022/09/03 09:18:29;;;;;;;1.55;0.93;;;;;;;18.81;38.57;101015.50;1681886;84;21093;-65
2022/09/03 09:21:19;;;;;;;1.57;0.98;;;;;;;18.88;38.48;101013.27;1683331;84;21100;-65
2022/09/03 09:23:49;;;;;;;5.25;1.05;;;;;;;18.99;38.12;101019.25;1683142;84;21042;-64
2022/09/03 09:26:20;;;;;;;1.30;0.78;;;;;;;19.10;37.79;101009.53;1678187;84;20984;-66
2022/09/03 09:28:51;;;;;;;2.10;0.88;;;;;;;19.16;37.50;101004.58;1653731;85;21117;-65
2022/09/03 09:31:20;;;;;;;3.62;0.88;;;;;;;19.16;37.51;101012.16;1668055;84;21090;-65
2022/09/03 09:33:46;;;;;;;2.45;0.60;;;;;;;19.12;37.62;101007.42;1678140;84;21645;-65
2022/09/03 09:36:18;;;;;;;2.42;0.88;;;;;;;19.12;37.48;101011.47;1648907;85;21027;-66
2022/09/03 09:38:48;;;;;;;0.95;0.70;;;;;;;19.15;37.51;101011.84;1645042;85;21550;-66
2022/09/03 09:41:19;;;;;;;2.75;0.60;;;;;;;19.19;37.21;101013.06;1681298;83;21164;-65
2022/09/03 09:43:49;;;;;;;0.90;0.50;;;;;;;19.20;36.80;101014.69;1695385;83;20984;-65
2022/09/03 09:46:26;;;;;;;2.08;0.82;;;;;;;19.21;36.94;101012.80;1690644;84;20965;-66
2022/09/03 09:48:56;;;;;;;1.95;0.68;;;;;;;19.18;36.92;101013.28;1693901;84;21080;-67
2022/09/03 09:51:31;;;;;;;5.15;1.05;;;;;;;19.14;36.96;101016.97;1696107;83;20986;-67
2022/09/03 09:54:18;;;;;;;1.22;0.60;;;;;;;19.14;37.39;101018.85;1685358;83;21041;-67
2022/09/03 09:56:50;;;;;;;1.62;0.88;;;;;;;19.15;37.23;101015.08;1695906;83;21030;-65
2022/09/03 09:59:18;;;;;;;2.22;0.70;;;;;;;19.19;37.06;101011.70;1702238;83;21053;-65
2022/09/03 10:01:44;;;;;;;0.90;0.50;;;;;;;19.25;36.97;101016.19;1687326;83;21078;-67
2022/09/03 10:04:21;;;;;;;1.72;0.75;;;;;;;19.28;36.70;101014.08;1696014;83;21074;-67
2022/09/03 10:06:55;;;;;;;1.57;0.55;;;;;;;19.31;35.92;101017.66;1680498;83;21104;-65
2022/09/03 10:09:28;;;;;;;2.83;0.50;;;;;;;19.30;35.96;101021.42;1673241;84;21080;-65
2022/09/03 10:12:18;;;;;;;2.12;0.30;;;;;;;19.31;36.06;101012.25;1671260;84;21045;-66
2022/09/03 10:15:11;;;;;;;2.22;0.70;;;;;;;19.31;35.86;101015.80;1691562;83;21029;-65
2022/09/03 10:17:55;;;;;;;1.37;0.60;;;;;;;19.24;36.23;101009.12;1692210;83;21013;-66
2022/09/03 10:20:43;;;;;;;0.75;0.40;;;;;;;19.26;35.99;101017.00;1692870;83;21119;-66
2022/09/03 10:23:17;;;;;;;3.17;0.75;;;;;;;19.30;35.92;101021.42;1666976;85;21073;-67
2022/09/03 10:26:08;;;;;;;1.00;0.60;;;;;;;19.29;35.99;101013.86;1693913;83;20979;-65
2022/09/03 10:28:40;;;;;;;2.58;0.45;;;;;;;19.26;35.93;101009.71;1686075;84;21106;-65
2022/09/03 10:31:42;;;;;;;1.85;0.65;;;;;;;19.10;36.18;101009.53;1674558;84;21082;-64
2022/09/03 10:34:32;;;;;;;1.47;0.50;;;;;;;18.96;36.38;101011.59;1676727;83;21177;-67
2022/09/03 10:37:18;;;;;;;2.20;0.65;;;;;;;18.88;36.47;101010.56;1690561;83;21025;-66
2022/09/03 10:40:29;;;;;;;1.02;0.40;;;;;;;18.87;36.83;101001.61;1692991;83;21069;-66
2022/09/03 10:43:31;;;;;;;1.52;0.50;;;;;;;18.90;36.69;101003.87;1659647;83;21098;-65
2022/09/03 10:46:17;;;;;;;0.93;0.88;;;;;;;18.94;36.47;101001.55;1692953;83;20986;-65
2022/09/03 10:49:07;;;;;;;;;;;;;;;18.97;36.39;100995.70;1700625;83;21490;-65
2022/09/03 10:51:51;;;;;;;0.75;0.62;;;;;;;18.90;36.18;100994.95;1678053;84;20140;-66
2022/09/03 10:54:31;;;;;;;0.57;0.47;;;;;;;18.77;36.33;100997.25;1678081;84;21078;-66
2022/09/03 10:57:30;;;;;;;2.30;0.68;;;;;;;18.80;36.52;100997.66;1690175;83;21569;-67
2022/09/03 11:00:09;;;;;;;9.30;0.82;;;;;;;18.85;36.48;100996.46;1670640;83;21561;-65
2022/09/03 11:03:06;;;;;;;2.80;0.93;;;;;;;18.88;36.63;100998.41;1684158;83;20998;-67
2022/09/03 11:05:37;;;;;;;6.05;1.42;;;;;;;18.88;36.69;100998.41;1693937;83;21544;-67
2022/09/03 11:08:11;;;;;;;1.42;0.50;;;;;;;18.85;36.89;100991.06;1692051;83;21126;-67
2022/09/03 11:10:43;;;;;;;0.90;0.80;;;;;;;18.88;36.98;100984.91;1677507;84;21050;-66
2022/09/03 11:13:17;;;;;;;1.98;1.07;;;;;;;18.86;36.70;100988.64;1681529;83;21536;-65
2022/09/03 11:15:59;;;;;;;1.40;1.30;;;;;;;18.88;36.68;100990.30;1684728;83;21046;-67
2022/09/03 11:18:37;;;;;;;3.10;1.40;;;;;;;18.89;36.79;100989.23;1690348;83;21069;-73
2022/09/03 11:21:09;;;;;;;1.90;0.80;;;;;;;18.72;36.76;100978.20;1672116;83;21037;-67
2022/09/03 11:23:44;;;;;;;4.70;0.82;;;;;;;18.53;37.36;100993.58;1659210;85;21542;-70
2022/09/03 11:28:19;;;;;;;0.90;0.70;;;;;;;18.56;37.34;100979.65;1820443;77;22656;-68
2022/09/03 11:31:18;;;;;;;2.60;0.93;;;;;;;18.62;37.20;100971.98;1779812;78;21070;-69
2022/09/03 11:33:53;;;;;;;1.25;0.90;;;;;;;18.72;37.17;100976.31;1766290;79;21039;-68
2022/09/03 11:36:28;;;;;;;7.15;0.90;;;;;;;18.81;36.97;100977.69;1754479;80;21113;-69
2022/09/03 11:38:54;;;;;;;1.05;0.95;;;;;;;18.87;36.70;100967.85;1757531;80;21028;-70
2022/09/03 11:41:28;;;;;;;2.72;1.10;;;;;;;18.90;36.85;100966.05;1759758;80;21489;-70
2022/09/03 11:43:54;;;;;;;0.70;0.70;;;;;;;18.97;36.64;100974.90;1760269;80;21017;-68
2022/09/03 11:46:26;;;;;;;2.22;0.98;;;;;;;19.03;36.54;100969.11;1759574;80;21057;-67
2022/09/03 11:49:12;;;;;;;3.35;0.90;;;;;;;19.06;36.44;100972.69;1734150;80;21631;-66
2022/09/03 11:51:43;;;;;;;3.35;1.15;;;;;;;19.08;35.99;100967.05;1691349;84;21615;-67
2022/09/03 11:54:22;;;;;;;1.17;0.80;;;;;;;18.96;36.03;100956.21;1722058;81;21025;-68
2022/09/03 11:56:50;;;;;;;1.25;0.60;;;;;;;18.89;36.32;100949.53;1732124;81;21084;-68
2022/09/03 11:59:26;;;;;;;3.65;0.47;;;;;;;18.85;36.20;100946.50;1748747;81;21207;-65
2022/09/03 12:02:23;;;;;;;5.92;1.47;;;;;;;18.86;36.19;100946.78;1728659;81;21485;-69